createdAt,value
2023-04-09T00:01:42.129Z,73.60
2023-04-09T00:04:08.649Z,73.41
2023-04-09T00:06:35.191Z,73.44
2023-04-09T00:09:01.612Z,73.71
2023-04-09T00:11:27.991Z,73.82
2023-04-09T00:13:54.418Z,73.88
2023-04-09T00:16:20.905Z,73.75
2023-04-09T00:18:47.396Z,73.85
2023-04-09T00:21:23.420Z,73.80
2023-04-09T00:26:55.098Z,73.98
2023-04-09T00:32:48.877Z,73.89
2023-04-09T00:35:46.980Z,73.86
2023-04-09T00:38:49.881Z,73.99
2023-04-09T00:45:16.111Z,73.99
2023-04-09T00:57:16.222Z,74.16
2023-04-09T01:02:47.579Z,74.51
2023-04-09T01:05:46.998Z,74.43
2023-04-09T01:09:44.594Z,74.29
2023-04-09T01:12:47.159Z,74.75
2023-04-09T01:15:39.868Z,75.04
2023-04-09T01:18:54.731Z,74.97
2023-04-09T01:21:26.269Z,75.22
2023-04-09T01:23:58.960Z,75.15
2023-04-09T01:27:05.426Z,75.21
2023-04-09T01:29:35.413Z,75.25
2023-04-09T01:32:07.118Z,75.27
2023-04-09T01:34:34.177Z,75.32
2023-04-09T01:37:03.296Z,75.39
2023-04-09T01:39:30.550Z,75.39
2023-04-09T01:41:58.188Z,75.29
2023-04-09T01:44:26.216Z,75.08
2023-04-09T01:46:55.092Z,75.30
2023-04-09T01:49:22.258Z,75.55
2023-04-09T01:51:49.001Z,75.47
2023-04-09T01:54:17.135Z,75.42
2023-04-09T01:56:48.306Z,75.68
2023-04-09T01:59:15.644Z,75.49
2023-04-09T02:01:54.764Z,75.58
2023-04-09T02:04:34.478Z,75.73
2023-04-09T02:07:18.366Z,75.75
2023-04-09T02:09:47.867Z,75.79
2023-04-09T02:12:18.144Z,75.71
2023-04-09T02:14:51.228Z,76.23
2023-04-09T02:17:18.258Z,75.85
2023-04-09T02:19:46.646Z,76.02
2023-04-09T02:22:14.244Z,76.01
2023-04-09T02:24:40.671Z,75.99
2023-04-09T02:27:07.805Z,76.35
2023-04-09T02:29:34.412Z,76.32
2023-04-09T02:32:00.919Z,76.35
2023-04-09T02:34:28.165Z,76.33
2023-04-09T02:36:54.573Z,76.49
2023-04-09T02:39:21.051Z,76.44
2023-04-09T02:41:47.409Z,76.58
2023-04-09T02:44:13.869Z,76.66
2023-04-09T02:46:41.541Z,76.59
2023-04-09T02:49:08.065Z,76.79
2023-04-09T02:51:35.966Z,76.91
2023-04-09T02:54:03.756Z,76.62
2023-04-09T02:56:30.267Z,76.84
2023-04-09T02:58:56.686Z,76.96
2023-04-09T03:01:23.172Z,76.99
2023-04-09T03:03:50.403Z,76.99
2023-04-09T03:06:18.356Z,76.87
2023-04-09T03:08:44.864Z,76.98
2023-04-09T03:11:11.335Z,76.94
2023-04-09T03:13:37.816Z,77.05
2023-04-09T03:16:04.494Z,76.87
2023-04-09T03:18:30.865Z,77.19
2023-04-09T03:21:11.252Z,77.27
2023-04-09T03:24:09.459Z,76.89
2023-04-09T03:26:47.682Z,76.96
2023-04-09T03:30:26.937Z,77.18
2023-04-09T03:33:16.860Z,77.25
2023-04-09T03:35:56.606Z,77.04
2023-04-09T03:38:24.606Z,77.42
2023-04-09T03:40:58.753Z,77.58
2023-04-09T03:43:35.733Z,77.19
2023-04-09T03:46:26.728Z,77.44
2023-04-09T03:49:00.095Z,77.56
2023-04-09T03:51:37.370Z,77.61
2023-04-09T04:02:39.849Z,77.71
2023-04-09T04:05:11.757Z,78.02
2023-04-09T04:07:51.409Z,77.83
2023-04-09T04:10:22.955Z,77.98
2023-04-09T04:18:36.933Z,77.98
2023-04-09T04:19:16.155Z,78.06
2023-04-09T04:22:08.750Z,78.24
2023-04-09T04:27:33.656Z,78.59
2023-04-09T04:30:16.087Z,78.59
2023-04-09T04:36:30.298Z,78.41
2023-04-09T04:39:00.825Z,78.40
2023-04-09T04:42:19.311Z,78.49
2023-04-09T04:47:59.472Z,78.62
2023-04-09T04:50:57.942Z,78.71
2023-04-09T04:56:52.578Z,78.80
2023-04-09T04:59:29.545Z,78.81
2023-04-09T05:02:03.298Z,78.77
2023-04-09T05:04:40.530Z,78.99
2023-04-09T05:07:15.155Z,78.77
2023-04-09T05:10:21.374Z,78.82
2023-04-09T05:13:51.757Z,78.87
2023-04-09T05:17:45.304Z,78.59
2023-04-09T05:20:04.447Z,78.86
2023-04-09T05:26:39.760Z,78.81
2023-04-09T05:36:10.036Z,78.82
2023-04-09T05:40:35.580Z,78.65
2023-04-09T05:45:08.768Z,78.58
2023-04-09T05:48:11.754Z,78.80
2023-04-09T05:57:53.080Z,77.87
2023-04-09T06:00:26.885Z,77.86
2023-04-09T06:03:00.865Z,77.66
2023-04-09T06:05:32.015Z,77.27
2023-04-09T06:08:03.415Z,77.08
2023-04-09T06:10:41.604Z,76.87
2023-04-09T06:13:15.904Z,76.45
2023-04-09T06:15:44.377Z,76.33
2023-04-09T06:18:23.427Z,76.28
2023-04-09T06:21:16.445Z,76.27
2023-04-09T06:23:50.723Z,76.04
2023-04-09T06:26:24.513Z,76.14
2023-04-09T06:28:55.036Z,75.94
2023-04-09T06:31:26.232Z,75.76
2023-04-09T06:33:54.914Z,75.90
2023-04-09T06:36:47.623Z,75.58
2023-04-09T06:39:28.008Z,75.69
2023-04-09T06:41:56.166Z,75.40
2023-04-09T06:44:27.222Z,74.96
2023-04-09T06:46:55.573Z,74.93
2023-04-09T06:49:31.647Z,74.74
2023-04-09T06:52:02.668Z,74.47
2023-04-09T06:54:39.341Z,74.37
2023-04-09T07:00:34.602Z,74.14
2023-04-09T07:03:10.081Z,73.82
2023-04-09T07:05:59.304Z,73.38
2023-04-09T07:08:27.047Z,73.30
2023-04-09T07:10:55.291Z,73.15
2023-04-09T07:26:06.669Z,71.75
2023-04-09T07:28:33.352Z,71.43
2023-04-09T07:31:02.714Z,70.95
2023-04-09T07:33:29.566Z,71.01
2023-04-09T07:35:56.660Z,70.94
2023-04-09T07:38:23.206Z,70.79
2023-04-09T07:40:49.607Z,70.46
2023-04-09T07:43:16.791Z,70.45
2023-04-09T07:45:44.470Z,70.00
2023-04-09T07:48:10.988Z,69.96
2023-04-09T07:50:38.074Z,69.52
2023-04-09T07:53:04.499Z,69.30
2023-04-09T07:55:31.043Z,69.21
2023-04-09T07:57:57.427Z,68.67
2023-04-09T08:00:23.954Z,68.59
2023-04-09T08:02:51.000Z,68.40
2023-04-09T08:05:17.697Z,67.92
2023-04-09T08:07:44.311Z,67.75
2023-04-09T08:10:15.101Z,67.50
2023-04-09T08:12:42.020Z,67.14
2023-04-09T08:15:09.044Z,66.72
2023-04-09T08:17:37.234Z,66.35
2023-04-09T08:20:04.899Z,66.34
2023-04-09T08:22:31.716Z,66.25
2023-04-09T08:25:00.263Z,65.77
2023-04-09T08:27:28.698Z,65.29
2023-04-09T08:29:55.237Z,65.05
2023-04-09T08:32:22.048Z,65.04
2023-04-09T08:34:48.478Z,64.54
2023-04-09T08:37:14.882Z,64.27
2023-04-09T08:39:41.249Z,64.25
2023-04-09T08:42:09.032Z,63.90
2023-04-09T08:44:35.445Z,63.61
2023-04-09T08:47:02.640Z,63.01
2023-04-09T08:49:29.034Z,62.71
2023-04-09T08:51:55.638Z,62.32
2023-04-09T08:54:23.340Z,62.01
2023-04-09T08:56:49.770Z,61.78
2023-04-09T08:59:20.880Z,61.30
2023-04-09T09:01:52.610Z,60.83
2023-04-09T09:04:19.431Z,60.48
2023-04-09T09:06:45.950Z,60.27
2023-04-09T09:09:16.562Z,60.08
2023-04-09T09:11:48.536Z,60.03
2023-04-09T09:14:17.426Z,60.34
2023-04-09T09:16:56.233Z,59.69
2023-04-09T09:19:26.039Z,59.30
2023-04-09T09:22:01.313Z,58.76
2023-04-09T09:24:27.938Z,58.70
2023-04-09T09:26:55.684Z,58.18
2023-04-09T09:29:22.157Z,58.52
2023-04-09T09:31:50.967Z,59.23
2023-04-09T09:34:18.550Z,59.84
2023-04-09T09:36:46.473Z,59.85
2023-04-09T09:39:14.294Z,59.12
2023-04-09T09:41:41.925Z,59.05
2023-04-09T09:44:10.363Z,58.39
2023-04-09T09:46:38.673Z,57.93
2023-04-09T09:49:06.144Z,57.88
2023-04-09T09:51:34.265Z,58.49
2023-04-09T09:54:02.275Z,58.27
2023-04-09T09:56:35.015Z,58.39
2023-04-09T09:59:04.505Z,58.63
2023-04-09T10:01:31.433Z,58.41
2023-04-09T10:04:00.828Z,56.99
2023-04-09T10:06:28.509Z,56.08
2023-04-09T10:09:00.894Z,56.28
2023-04-09T10:11:28.049Z,56.86
2023-04-09T10:13:58.862Z,56.95
2023-04-09T10:16:27.332Z,57.14
2023-04-09T10:18:55.914Z,56.47
2023-04-09T10:21:50.344Z,56.71
2023-04-09T10:24:17.159Z,55.93
2023-04-09T10:26:46.898Z,55.39
2023-04-09T10:29:15.180Z,55.64
2023-04-09T10:32:07.270Z,55.67
2023-04-09T10:34:40.471Z,54.79
2023-04-09T10:37:14.486Z,54.99
2023-04-09T10:39:45.608Z,54.36
2023-04-09T10:42:27.322Z,53.33
2023-04-09T10:45:11.508Z,52.58
2023-04-09T10:47:42.979Z,52.59
2023-04-09T10:50:24.125Z,53.19
2023-04-09T10:52:57.392Z,52.93
2023-04-09T10:55:33.021Z,51.87
2023-04-09T10:57:59.460Z,50.99
2023-04-09T11:00:25.971Z,51.31
2023-04-09T11:03:21.904Z,52.14
2023-04-09T11:06:11.210Z,52.45
2023-04-09T11:08:38.617Z,51.82
2023-04-09T11:11:05.938Z,50.57
2023-04-09T11:13:33.018Z,49.97
2023-04-09T11:16:01.241Z,49.25
2023-04-09T11:18:30.005Z,48.54
2023-04-09T11:20:57.630Z,47.54
2023-04-09T11:23:25.047Z,47.66
2023-04-09T11:25:52.675Z,47.35
2023-04-09T11:28:19.754Z,48.12
2023-04-09T11:30:49.404Z,48.50
2023-04-09T11:33:18.234Z,48.43
2023-04-09T11:35:46.438Z,47.95
2023-04-09T11:38:12.896Z,47.35
2023-04-09T11:40:48.237Z,47.32
2023-04-09T11:43:16.487Z,47.11
2023-04-09T11:45:43.689Z,46.69
2023-04-09T11:48:11.445Z,46.23
2023-04-09T11:50:38.092Z,46.06
2023-04-09T11:53:18.997Z,45.20
2023-04-09T11:55:48.240Z,45.00
2023-04-09T11:58:14.713Z,44.43
2023-04-09T12:00:41.370Z,44.21
2023-04-09T12:03:08.120Z,44.07
2023-04-09T12:05:35.246Z,43.74
2023-04-09T12:08:08.481Z,43.37
2023-04-09T12:10:37.346Z,43.26
2023-04-09T12:13:06.668Z,42.81
2023-04-09T12:15:35.373Z,42.78
2023-04-09T12:18:02.576Z,42.47
2023-04-09T12:20:39.573Z,42.24
2023-04-09T12:23:07.195Z,41.86
2023-04-09T12:25:36.544Z,41.92
2023-04-09T12:28:04.890Z,42.30
2023-04-09T12:30:31.856Z,42.21
2023-04-09T12:32:59.120Z,42.03
2023-04-09T12:35:25.881Z,42.71
2023-04-09T12:37:52.551Z,43.73
2023-04-09T12:40:20.294Z,43.12
2023-04-09T12:42:47.081Z,42.91
2023-04-09T12:45:16.595Z,42.36
2023-04-09T12:47:43.918Z,41.56
2023-04-09T12:50:11.273Z,40.60
2023-04-09T12:52:38.111Z,40.07
2023-04-09T12:55:05.813Z,39.70
2023-04-09T12:57:32.896Z,39.89
2023-04-09T12:59:59.404Z,39.94
2023-04-09T13:02:26.145Z,40.89
2023-04-09T13:04:55.308Z,41.10
2023-04-09T13:07:22.724Z,41.36
2023-04-09T13:09:52.550Z,41.80
2023-04-09T13:12:21.373Z,40.98
2023-04-09T13:14:48.463Z,40.52
2023-04-09T13:17:15.752Z,39.95
2023-04-09T13:19:42.828Z,40.03
2023-04-09T13:22:11.396Z,39.80
2023-04-09T13:24:38.924Z,39.61
2023-04-09T13:27:06.498Z,39.01
2023-04-09T13:29:33.010Z,38.60
2023-04-09T13:32:01.706Z,38.48
2023-04-09T13:34:28.183Z,39.45
2023-04-09T13:36:54.582Z,39.74
2023-04-09T13:39:21.007Z,39.44
2023-04-09T13:41:47.473Z,39.72
2023-04-09T13:44:13.926Z,39.97
2023-04-09T13:46:40.361Z,40.37
2023-04-09T13:49:06.928Z,40.40
2023-04-09T13:51:33.744Z,40.58
2023-04-09T13:54:00.206Z,40.59
2023-04-09T13:56:27.443Z,40.29
2023-04-09T13:58:54.479Z,39.37
2023-04-09T14:01:21.471Z,38.64
2023-04-09T14:03:48.034Z,38.39
2023-04-09T14:06:15.616Z,38.71
2023-04-09T14:08:41.977Z,39.61
2023-04-09T14:11:08.455Z,40.13
2023-04-09T14:13:34.826Z,40.46
2023-04-09T14:16:02.030Z,40.12
2023-04-09T14:18:28.454Z,39.25
2023-04-09T14:20:54.934Z,38.59
2023-04-09T14:23:21.349Z,37.99
2023-04-09T14:25:47.731Z,37.56
2023-04-09T14:28:14.665Z,37.36
2023-04-09T14:30:41.163Z,37.40
2023-04-09T14:33:07.599Z,37.23
2023-04-09T14:35:34.304Z,37.56
2023-04-09T14:38:04.244Z,37.48
2023-04-09T14:40:31.899Z,37.91
2023-04-09T14:42:59.626Z,37.99
2023-04-09T14:45:26.468Z,37.93
2023-04-09T14:47:53.767Z,37.91
2023-04-09T14:50:20.658Z,37.74
2023-04-09T14:52:48.081Z,37.50
2023-04-09T14:55:15.944Z,37.44
2023-04-09T14:57:42.676Z,37.38
2023-04-09T15:00:11.231Z,37.73
2023-04-09T15:02:41.295Z,37.68
2023-04-09T15:05:08.690Z,37.77
2023-04-09T15:07:35.219Z,37.76
2023-04-09T15:10:01.890Z,37.76
2023-04-09T15:12:32.103Z,37.66
2023-04-09T15:14:59.105Z,37.64
2023-04-09T15:17:26.512Z,37.50
2023-04-09T15:19:53.794Z,37.39
2023-04-09T15:22:21.120Z,37.71
2023-04-09T15:24:47.947Z,37.35
2023-04-09T15:27:14.358Z,37.34
2023-04-09T15:29:40.783Z,37.41
2023-04-09T15:32:07.275Z,37.64
2023-04-09T15:34:33.863Z,37.40
2023-04-09T15:37:00.270Z,37.45
2023-04-09T15:39:28.625Z,37.63
2023-04-09T15:41:58.639Z,37.76
2023-04-09T15:44:26.261Z,37.93
2023-04-09T15:46:52.822Z,37.97
2023-04-09T15:49:19.658Z,38.54
2023-04-09T15:51:46.432Z,39.20
2023-04-09T15:54:12.940Z,39.80
2023-04-09T15:56:41.670Z,39.83
2023-04-09T15:59:08.441Z,40.14
2023-04-09T16:01:36.377Z,40.24
2023-04-09T16:04:04.555Z,39.99
2023-04-09T16:06:31.284Z,40.31
2023-04-09T16:08:57.791Z,40.49
2023-04-09T16:11:24.280Z,40.58
2023-04-09T16:13:50.855Z,41.15
2023-04-09T16:16:17.285Z,41.17
2023-04-09T16:18:43.809Z,41.00
2023-04-09T16:21:10.554Z,40.98
2023-04-09T16:23:37.085Z,41.05
2023-04-09T16:26:03.932Z,40.73
2023-04-09T16:28:30.460Z,40.84
2023-04-09T16:30:56.971Z,40.77
2023-04-09T16:33:23.458Z,40.56
2023-04-09T16:35:49.994Z,40.59
2023-04-09T16:38:16.457Z,40.76
2023-04-09T16:40:43.770Z,40.87
2023-04-09T16:43:10.406Z,41.06
2023-04-09T16:45:36.921Z,40.85
2023-04-09T16:48:06.083Z,41.04
2023-04-09T16:50:32.912Z,40.79
2023-04-09T16:53:01.068Z,40.73
2023-04-09T16:55:27.464Z,40.83
2023-04-09T16:57:55.941Z,40.92
2023-04-09T17:00:22.527Z,40.86
2023-04-09T17:02:49.171Z,40.98
2023-04-09T17:05:17.844Z,41.24
2023-04-09T17:07:44.483Z,41.28
2023-04-09T17:10:11.207Z,41.16
2023-04-09T17:12:38.067Z,41.43
2023-04-09T17:15:04.968Z,41.28
2023-04-09T17:17:31.476Z,41.35
2023-04-09T17:19:59.842Z,41.48
2023-04-09T17:22:26.227Z,41.63
2023-04-09T17:24:52.676Z,41.75
2023-04-09T17:27:19.626Z,41.84
2023-04-09T17:29:46.060Z,41.83
2023-04-09T17:32:12.423Z,41.84
2023-04-09T17:34:38.771Z,42.12
2023-04-09T17:37:05.203Z,42.19
2023-04-09T17:39:31.691Z,42.34
2023-04-09T17:42:00.451Z,42.57
2023-04-09T17:44:26.863Z,42.67
2023-04-09T17:46:53.822Z,42.82
2023-04-09T17:49:22.388Z,43.08
2023-04-09T17:51:48.983Z,42.93
2023-04-09T17:54:15.408Z,43.12
2023-04-09T17:56:41.873Z,43.39
2023-04-09T17:59:08.330Z,43.43
2023-04-09T18:01:34.841Z,43.45
2023-04-09T18:04:01.882Z,43.87
2023-04-09T18:06:28.561Z,43.79
2023-04-09T18:08:55.018Z,44.08
2023-04-09T18:11:21.565Z,44.02
2023-04-09T18:13:48.291Z,44.13
2023-04-09T18:16:14.884Z,44.26
2023-04-09T18:18:41.349Z,44.47
2023-04-09T18:21:07.846Z,44.28
2023-04-09T18:23:34.800Z,44.59
2023-04-09T18:26:01.633Z,44.68
2023-04-09T18:28:28.249Z,44.89
2023-04-09T18:30:54.794Z,44.90
2023-04-09T18:33:21.533Z,45.02
2023-04-09T18:35:48.125Z,45.06
2023-04-09T18:38:14.585Z,45.25
2023-04-09T18:40:42.947Z,45.18
2023-04-09T18:43:12.350Z,45.43
2023-04-09T18:45:41.781Z,45.63
2023-04-09T18:48:08.787Z,45.69
2023-04-09T18:50:35.539Z,45.83
2023-04-09T18:53:03.577Z,46.00
2023-04-09T18:55:30.433Z,46.02
2023-04-09T18:57:57.448Z,46.04
2023-04-09T19:00:24.022Z,46.30
2023-04-09T19:02:50.797Z,46.64
2023-04-09T19:05:17.581Z,46.79
2023-04-09T19:07:43.998Z,46.95
2023-04-09T19:10:10.858Z,47.13
2023-04-09T19:12:37.689Z,47.33
2023-04-09T19:15:04.809Z,47.55
2023-04-09T19:17:32.026Z,47.67
2023-04-09T19:19:58.513Z,47.72
2023-04-09T19:22:25.026Z,47.98
2023-04-09T19:24:51.416Z,48.08
2023-04-09T19:27:18.644Z,48.07
2023-04-09T19:29:46.909Z,48.22
2023-04-09T19:32:13.767Z,48.25
2023-04-09T19:34:40.352Z,48.55
2023-04-09T19:37:07.298Z,48.61
2023-04-09T19:39:33.729Z,48.78
2023-04-09T19:42:00.188Z,48.87
2023-04-09T19:44:26.588Z,49.08
2023-04-09T19:46:53.046Z,49.23
2023-04-09T19:49:19.677Z,49.76
2023-04-09T19:51:46.563Z,49.52
2023-04-09T19:54:13.018Z,50.02
2023-04-09T19:56:39.595Z,49.88
2023-04-09T19:59:06.128Z,50.11
2023-04-09T20:01:33.884Z,50.31
2023-04-09T20:04:01.002Z,50.38
2023-04-09T20:06:29.087Z,50.69
2023-04-09T20:08:55.848Z,50.66
2023-04-09T20:11:22.265Z,50.86
2023-04-09T20:13:48.782Z,50.98
2023-04-09T20:16:15.679Z,51.18
2023-04-09T20:18:42.223Z,51.26
2023-04-09T20:21:08.733Z,51.60
2023-04-09T20:23:35.425Z,51.74
2023-04-09T20:26:02.606Z,51.92
2023-04-09T20:28:29.516Z,52.23
2023-04-09T20:30:56.051Z,52.10
2023-04-09T20:33:22.427Z,52.30
2023-04-09T20:35:50.324Z,52.63
2023-04-09T20:38:20.417Z,52.86
2023-04-09T20:40:47.405Z,52.86
2023-04-09T20:43:13.901Z,53.12
2023-04-09T20:45:40.681Z,53.25
2023-04-09T20:48:07.225Z,53.24
2023-04-09T20:50:33.912Z,53.18
2023-04-09T20:53:00.424Z,53.50
2023-04-09T20:55:26.922Z,53.43
2023-04-09T20:57:55.366Z,53.83
2023-04-09T21:00:22.643Z,54.13
2023-04-09T21:02:49.181Z,54.02
2023-04-09T21:05:22.670Z,54.22
2023-04-09T21:07:49.782Z,54.34
2023-04-09T21:10:16.322Z,54.52
2023-04-09T21:12:42.655Z,54.71
2023-04-09T21:15:09.467Z,54.75
2023-04-09T21:17:36.037Z,54.71
2023-04-09T21:20:02.583Z,54.92
2023-04-09T21:22:28.950Z,55.02
2023-04-09T21:24:56.247Z,55.23
2023-04-09T21:27:22.894Z,55.35
2023-04-09T21:29:49.336Z,55.46
2023-04-09T21:32:16.340Z,55.64
2023-04-09T21:34:43.009Z,55.65
2023-04-09T21:37:09.429Z,55.81
2023-04-09T21:39:36.065Z,55.79
2023-04-09T21:42:02.834Z,56.07
2023-04-09T21:44:29.226Z,56.21
2023-04-09T21:46:56.158Z,56.43
2023-04-09T21:49:22.621Z,56.43
2023-04-09T21:51:49.019Z,56.68
2023-04-09T21:54:15.663Z,56.65
2023-04-09T21:56:42.247Z,56.92
2023-04-09T21:59:08.699Z,56.95
2023-04-09T22:01:35.440Z,57.03
2023-04-09T22:04:02.214Z,57.26
2023-04-09T22:06:29.112Z,57.19
2023-04-09T22:08:57.295Z,57.25
2023-04-09T22:11:27.035Z,57.43
2023-04-09T22:13:54.028Z,57.75
2023-04-09T22:16:20.522Z,57.67
2023-04-09T22:18:47.390Z,57.79
2023-04-09T22:21:15.743Z,57.96
2023-04-09T22:23:42.463Z,58.08
2023-04-09T22:26:09.022Z,58.17
2023-04-09T22:28:35.460Z,58.26
2023-04-09T22:31:03.459Z,58.43
2023-04-09T22:33:29.947Z,58.61
2023-04-09T22:35:56.513Z,58.60
2023-04-09T22:38:22.940Z,58.73
2023-04-09T22:40:49.718Z,58.90
2023-04-09T22:43:17.343Z,59.19
2023-04-09T22:45:51.415Z,59.37
2023-04-09T22:48:18.551Z,59.61
2023-04-09T22:50:45.810Z,59.80
2023-04-09T22:53:12.346Z,60.08
2023-04-09T22:55:38.702Z,60.12
2023-04-09T22:58:05.416Z,60.34
2023-04-09T23:00:31.758Z,60.35
2023-04-09T23:02:58.407Z,60.39
2023-04-09T23:05:25.001Z,60.34
2023-04-09T23:07:51.508Z,60.51
2023-04-09T23:10:18.344Z,60.67
2023-04-09T23:12:44.743Z,60.95
2023-04-09T23:15:11.384Z,60.80
2023-04-09T23:17:37.900Z,60.89
2023-04-09T23:20:06.682Z,60.61
2023-04-09T23:22:33.179Z,60.96
2023-04-09T23:24:59.594Z,61.33
2023-04-09T23:27:28.631Z,61.57
2023-04-09T23:29:56.496Z,61.48
2023-04-09T23:32:23.089Z,61.53
2023-04-09T23:34:50.210Z,61.76
2023-04-09T23:37:17.075Z,61.96
2023-04-09T23:39:43.604Z,62.01
2023-04-09T23:42:10.297Z,62.10
2023-04-09T23:44:36.664Z,62.45
2023-04-09T23:47:05.679Z,62.45
2023-04-09T23:49:32.325Z,62.64
2023-04-09T23:51:58.798Z,62.34
2023-04-09T23:54:25.192Z,62.62
2023-04-09T23:56:51.674Z,62.43
2023-04-09T23:59:18.074Z,62.57
